Latest Weather Observations for Hindmarsh Island

IDS60801

Issued at 1:31 pm CDT Tuesday 28 February 2017 (issued every 30 minutes, with the page automatically refreshed every 10 minutes)

About weather observations | Map of weather stations | Latest weather observations for SA | Other Formats
Station Details ID: 023894 Name: HINDMARSH ISLAND AWS Lat: -35.52 Lon: 138.82 Height: 11.0 m
Data from the previous 72 hours. | See also: Recent months at Hindmarsh Island
Date/Time
CDT
Temp
°C
App
Temp
°C
Dew
Point
°C
Rel
Hum
%
Delta-T
°C
Wind Press
QNH
hPa
Press
MSL
hPa
Rain since
9am
mm
Dir  Spd
km/h
Gust
km/h
Spd
kts
Gust
kts
28/01:30pm 36.6 31.3 6.7 16 16.5 NE 24 37 13 20 1016.2 1016.2 -
28/01:00pm 36.4 30.7 6.6 16 16.4 NE 26 35 14 19 1016.4 1016.4 0.0
28/12:30pm 36.7 31.2 5.9 15 16.8 NE 24 32 13 17 1016.7 1016.7 0.0
28/12:00pm 35.4 29.7 6.6 17 15.8 NNE 26 35 14 19 1016.9 1016.9 0.0
28/11:30am 34.6 29.5 9.1 21 14.5 NNE 26 33 14 18 1017.2 1017.2 0.0
28/11:00am 30.2 26.5 10.2 29 11.4 NE 20 26 11 14 1017.4 1017.4 0.0
28/10:30am 27.6 23.8 11.2 36 9.3 NE 22 28 12 15 1017.5 1017.5 0.0
28/10:00am 26.0 22.4 11.7 41 8.2 NE 22 30 12 16 1017.5 1017.5 0.0
28/09:30am 24.9 21.0 12.2 45 7.3 NNE 24 28 13 15 1017.5 1017.5 0.0
28/09:00am 24.7 21.1 13.0 48 6.8 NE 24 30 13 16 1017.6 1017.6 0.0
28/08:30am 22.0 19.2 14.4 62 4.4 NNE 22 26 12 14 1017.5 1017.5 0.0
28/08:00am 20.3 17.9 14.4 69 3.4 NNE 20 26 11 14 1017.4 1017.4 0.0
28/07:30am 19.2 16.3 14.0 72 3.0 NNE 22 26 12 14 1017.2 1017.2 0.0
28/07:00am 18.9 16.4 14.2 74 2.7 NNE 20 24 11 13 1016.9 1016.9 0.0
28/06:30am 18.4 16.0 14.3 77 2.4 NNE 20 22 11 12 1016.8 1016.8 0.0
28/06:00am 18.0 16.1 14.3 79 2.1 N 17 19 9 10 1016.6 1016.6 0.0
28/05:30am 17.7 16.4 14.8 83 1.7 N 15 17 8 9 1016.5 1016.5 0.0
28/05:00am 17.9 17.5 15.3 85 1.5 N 11 11 6 6 1016.5 1016.5 0.0
28/04:30am 18.4 19.9 15.8 85 1.5 NNW 2 9 1 5 1016.4 1016.4 0.0
28/04:00am 19.6 21.2 17.0 85 1.6 W 4 7 2 4 1016.5 1016.5 0.0
28/03:30am 19.5 20.1 16.7 84 1.7 WSW 9 11 5 6 1016.6 1016.6 0.0
28/03:00am 19.6 19.5 16.1 80 2.1 WSW 11 11 6 6 1016.8 1016.8 0.0
28/02:30am 20.2 19.6 15.6 75 2.7 WSW 13 13 7 7 1017.1 1017.1 0.0
28/02:00am 19.7 18.9 16.0 79 2.2 WSW 15 22 8 12 1017.1 1017.1 0.0
28/01:30am 19.9 19.7 15.7 77 2.5 WSW 11 15 6 8 1017.3 1017.3 0.0
28/01:00am 19.8 19.3 15.9 78 2.3 W 13 15 7 8 1017.6 1017.6 0.0
28/12:30am 19.8 19.2 15.7 77 2.4 W 13 20 7 11 1017.8 1017.8 0.0
28/12:00am 19.8 19.5 16.4 81 2.0 W 13 17 7 9 1017.9 1017.9 0.0
 
Date/Time
CDT
Temp
°C
App
Temp
°C
Dew
Point
°C
Rel
Hum
%
Delta-T
°C
Wind Press
QNH
hPa
Press
MSL
hPa
Rain since
9am
mm
Dir  Spd
km/h
Gust
km/h
Spd
kts
Gust
kts
27/11:30pm 19.4 19.5 16.4 83 1.8 WSW 11 13 6 7 1017.9 1017.9 0.0
27/11:00pm 19.5 19.2 16.5 83 1.8 WSW 13 19 7 10 1018.1 1018.1 0.0
27/10:30pm 19.7 19.2 16.9 84 1.7 WSW 15 17 8 9 1018.0 1018.0 0.0
27/10:00pm 19.6 18.7 16.8 84 1.7 WSW 17 20 9 11 1018.2 1018.2 0.0
27/09:30pm 19.6 18.2 16.6 83 1.8 SW 19 20 10 11 1018.0 1018.0 0.0
27/09:00pm 19.6 18.9 16.4 82 1.9 SW 15 19 8 10 1017.7 1017.7 0.0
27/08:30pm 19.9 18.6 16.9 83 1.8 SW 19 22 10 12 1017.3 1017.3 0.0
27/08:00pm 20.0 18.6 17.0 83 1.8 SW 20 28 11 15 1017.0 1017.0 0.0
27/07:30pm 20.6 18.1 17.2 81 2.1 SW 26 32 14 17 1016.8 1016.8 0.0
27/07:00pm 21.4 19.2 17.0 76 2.7 SW 24 30 13 16 1016.6 1016.6 0.0
27/06:30pm 22.0 19.8 16.9 73 3.1 SW 24 30 13 16 1016.4 1016.4 0.0
27/06:00pm 22.5 20.0 17.2 72 3.3 SW 26 32 14 17 1016.1 1016.1 0.0
27/05:30pm 22.6 20.4 16.9 70 3.5 SW 24 28 13 15 1016.2 1016.2 0.0
27/05:00pm 23.0 20.8 17.0 69 3.7 SW 24 28 13 15 1016.3 1016.3 0.0
27/04:30pm 23.3 21.6 17.1 68 3.8 SW 22 26 12 14 1016.5 1016.5 0.0
27/04:00pm 23.1 21.1 17.3 70 3.6 SW 24 28 13 15 1016.7 1016.7 0.0
27/03:30pm 23.5 22.1 17.0 67 4.0 SSW 20 24 11 13 1017.0 1017.0 0.0
27/03:00pm 22.8 21.6 17.0 70 3.6 SSW 19 22 10 12 1017.4 1017.4 0.0
27/02:30pm 23.3 22.0 16.8 67 4.0 SSW 19 22 10 12 1017.6 1017.6 0.0
27/02:00pm 23.2 22.1 17.2 69 3.7 S 19 22 10 12 1017.8 1017.8 0.0
27/01:30pm 23.3 22.4 16.8 67 4.0 SSW 17 20 9 11 1018.0 1018.0 0.0
27/01:00pm 23.6 22.5 17.3 67 3.9 S 19 20 10 11 1018.2 1018.2 0.0
27/12:30pm 22.7 21.7 16.5 68 3.8 S 17 20 9 11 1018.4 1018.4 0.0
27/12:00pm 22.5 22.1 17.2 72 3.3 S 15 17 8 9 1018.5 1018.5 0.0
27/11:30am 22.1 21.9 16.8 72 3.2 S 13 15 7 8 1018.7 1018.7 0.0
27/11:00am 21.6 21.5 17.0 75 2.8 S 13 15 7 8 1019.0 1019.0 0.0
27/10:30am 21.2 21.3 16.6 75 2.8 S 11 13 6 7 1019.1 1019.1 0.0
27/10:00am 20.3 20.4 16.5 79 2.3 SSW 11 13 6 7 1019.1 1019.1 0.0
27/09:30am 19.8 19.9 16.4 81 2.0 SW 11 13 6 7 1019.2 1019.2 0.0
27/09:00am 19.3 19.0 16.5 84 1.7 SW 13 15 7 8 1019.1 1019.1 0.0
27/08:30am 18.1 18.0 15.9 87 1.3 SW 11 13 6 7 1019.0 1019.0 0.0
27/08:00am 16.2 16.3 14.4 89 1.0 WSW 7 11 4 6 1018.9 1018.9 0.0
27/07:30am 14.9 13.8 13.1 89 1.0 WSW 11 11 6 6 1018.8 1018.8 0.0
27/07:00am 14.2 13.2 12.4 89 1.0 W 9 11 5 6 1018.7 1018.7 0.0
27/06:30am 14.2 13.6 12.2 88 1.1 WNW 7 9 4 5 1018.6 1018.6 0.0
27/06:00am 14.2 13.2 12.4 89 1.0 NW 9 9 5 5 1018.5 1018.5 0.0
27/05:30am 14.4 13.9 12.6 89 1.0 NW 7 7 4 4 1018.4 1018.4 0.0
27/05:00am 14.5 14.0 12.5 88 1.1 NW 7 9 4 5 1018.4 1018.4 0.0
27/04:30am 15.1 14.4 13.1 88 1.1 WNW 9 11 5 6 1018.3 1018.3 0.0
27/04:00am 15.3 14.6 13.3 88 1.1 NW 9 11 5 6 1018.6 1018.6 0.0
27/03:30am 15.5 14.5 13.5 88 1.1 WNW 11 13 6 7 1018.8 1018.8 0.0
27/03:00am 15.9 15.3 13.6 86 1.3 NW 9 11 5 6 1019.0 1019.0 0.0
27/02:30am 16.9 17.0 14.4 85 1.4 SSW 7 7 4 4 1019.3 1019.3 0.0
27/02:00am 16.9 17.0 14.4 85 1.4 SSW 7 9 4 5 1019.5 1019.5 0.0
27/01:30am 17.2 16.6 14.5 84 1.5 S 11 13 6 7 1019.8 1019.8 0.0
27/01:00am 17.6 16.6 14.7 83 1.7 SSE 13 17 7 9 1019.8 1019.8 0.0
27/12:30am 17.8 16.9 14.9 83 1.7 S 13 15 7 8 1019.8 1019.8 0.0
27/12:00am 17.8 16.2 14.9 83 1.7 S 17 20 9 11 1019.7 1019.7 0.0
 
Date/Time
CDT
Temp
°C
App
Temp
°C
Dew
Point
°C
Rel
Hum
%
Delta-T
°C
Wind Press
QNH
hPa
Press
MSL
hPa
Rain since
9am
mm
Dir  Spd
km/h
Gust
km/h
Spd
kts
Gust
kts
26/11:30pm 17.8 16.5 14.7 82 1.8 S 15 19 8 10 1019.8 1019.8 0.0
26/11:00pm 17.9 16.2 14.6 81 1.9 S 17 20 9 11 1019.8 1019.8 0.0
26/10:30pm 17.8 16.0 14.5 81 1.9 S 17 20 9 11 1020.0 1020.0 0.0
26/10:00pm 17.6 15.7 14.1 80 2.0 S 17 19 9 10 1020.0 1020.0 0.0
26/09:30pm 17.5 15.5 13.8 79 2.1 S 17 20 9 11 1019.8 1019.8 0.0
26/09:00pm 17.6 15.2 13.7 78 2.2 S 19 24 10 13 1019.4 1019.4 0.0
26/08:30pm 17.6 14.9 13.5 77 2.3 S 20 22 11 12 1019.1 1019.1 0.0
26/08:00pm 17.5 14.7 13.2 76 2.4 SSW 20 26 11 14 1019.0 1019.0 0.0
26/07:30pm 18.0 15.3 13.5 75 2.5 SSW 20 26 11 14 1018.7 1018.7 0.0
26/07:00pm 18.5 15.6 12.9 70 3.1 S 20 24 11 13 1018.7 1018.7 0.0
26/06:30pm 19.3 17.2 13.5 69 3.3 SSW 17 22 9 12 1018.8 1018.8 0.0
26/06:00pm 19.4 16.8 13.1 67 3.6 S 19 24 10 13 1018.7 1018.7 0.0
26/05:30pm 19.3 16.3 12.6 65 3.7 S 20 24 11 13 1018.5 1018.5 0.0
26/05:00pm 19.5 16.5 12.5 64 3.9 S 20 26 11 14 1018.4 1018.4 0.0
26/04:30pm 19.4 16.9 12.2 63 4.0 S 17 22 9 12 1018.5 1018.5 0.0
26/04:00pm 20.0 17.1 13.0 64 4.0 S 20 26 11 14 1018.4 1018.4 0.0
26/03:30pm 20.5 17.7 12.7 61 4.4 SSW 19 24 10 13 1018.7 1018.7 0.0
26/03:00pm 20.2 17.2 11.9 59 4.6 S 19 24 10 13 1019.0 1019.0 0.0
26/02:30pm 19.9 17.4 12.4 62 4.2 S 17 22 9 12 1019.4 1019.4 0.0
26/02:00pm 19.3 16.6 11.6 61 4.2 S 17 22 9 12 1019.6 1019.6 0.0
26/01:30pm 19.9 17.2 11.7 59 4.5 S 17 20 9 11 1019.9 1019.9 0.0
26/01:00pm 19.3 16.6 11.8 62 4.1 S 17 20 9 11 1020.2 1020.2 0.0
26/12:30pm 18.3 15.2 10.4 60 4.2 SSE 17 22 9 12 1020.5 1020.5 0.0
26/12:00pm 18.4 15.4 10.5 60 4.2 SSE 17 24 9 13 1020.7 1020.7 0.0
26/11:30am 18.2 14.9 10.8 62 4.0 SSE 19 22 10 12 1020.7 1020.7 0.0
26/11:00am 18.1 15.4 10.5 61 4.1 SSE 15 20 8 11 1021.0 1021.0 0.0
26/10:30am 17.7 15.1 10.6 63 3.8 SE 15 19 8 10 1021.2 1021.2 0.0
26/10:00am 17.3 15.2 9.7 61 4.0 SE 11 19 6 10 1021.6 1021.6 0.0
26/09:30am 16.9 14.0 9.8 63 3.7 ENE 15 20 8 11 1021.6 1021.6 0.0
26/09:00am 16.4 13.3 10.3 67 3.2 E 17 20 9 11 1021.7 1021.7 0.0
26/08:30am 15.3 12.6 10.3 72 2.6 ENE 15 19 8 10 1021.6 1021.6 0.0
26/08:00am 13.4 10.8 9.5 77 2.0 NE 13 17 7 9 1021.6 1021.6 0.0
26/07:30am 11.5 7.9 8.4 81 1.5 NE 17 19 9 10 1021.3 1021.3 0.0
26/07:00am 10.0 6.4 6.9 81 1.5 ENE 15 17 8 9 1021.3 1021.3 0.0
26/06:30am 9.7 5.6 6.4 80 1.5 ENE 17 19 9 10 1021.2 1021.2 0.0
26/06:00am 10.1 6.0 6.4 78 1.7 ENE 17 19 9 10 1021.0 1021.0 0.0
26/05:30am 10.1 6.4 6.3 77 1.8 ENE 15 17 8 9 1020.9 1020.9 0.0
26/05:00am 10.5 6.8 6.5 76 1.9 E 15 17 8 9 1020.8 1020.8 0.0
26/04:30am 11.1 7.8 6.6 74 2.1 ENE 13 15 7 8 1020.9 1020.9 0.0
26/04:00am 11.0 7.7 6.6 74 2.1 ENE 13 15 7 8 1021.1 1021.1 0.0
26/03:30am 11.9 8.8 7.2 73 2.3 ENE 13 15 7 8 1021.3 1021.3 0.0
26/03:00am 12.4 8.6 7.5 72 2.4 E 17 20 9 11 1021.4 1021.4 0.0
26/02:30am 13.1 10.3 8.4 73 2.3 ENE 13 15 7 8 1021.6 1021.6 0.0
26/02:00am 14.0 11.3 9.0 72 2.5 ENE 13 17 7 9 1021.7 1021.7 0.0
26/01:30am 15.9 10.7 10.2 69 3.0 ESE 28 35 15 19 1021.8 1021.8 0.0
26/01:00am 16.3 10.0 11.0 71 2.8 SE 35 41 19 22 1021.6 1021.6 0.0
26/12:30am 16.4 10.4 10.9 70 2.9 SE 33 43 18 23 1021.7 1021.7 0.0
26/12:00am 16.5 9.8 11.0 70 2.9 SE 37 43 20 23 1021.8 1021.8 0.0
 
Date/Time
CDT
Temp
°C
App
Temp
°C
Dew
Point
°C
Rel
Hum
%
Delta-T
°C
Wind Press
QNH
hPa
Press
MSL
hPa
Rain since
9am
mm
Dir  Spd
km/h
Gust
km/h
Spd
kts
Gust
kts
25/11:30pm 16.6 9.9 11.1 70 2.9 SE 37 46 20 25 1022.1 1022.1 0.0
25/11:00pm 16.6 10.4 11.5 72 2.8 SE 35 46 19 25 1022.3 1022.3 0.0
25/10:30pm 16.7 9.7 11.4 71 2.9 SSE 39 46 21 25 1022.4 1022.4 0.0
25/10:00pm 16.6 9.6 11.3 71 2.9 SSE 39 44 21 24 1022.6 1022.6 0.0
25/09:30pm 16.7 9.2 11.0 69 3.0 SSE 41 46 22 25 1022.8 1022.8 0.0
25/09:00pm 16.7 9.6 11.0 69 3.0 S 39 48 21 26 1022.8 1022.8 0.0
25/08:30pm 16.8 10.6 11.5 71 2.9 SSE 35 43 19 23 1022.4 1022.4 0.0
25/08:00pm 17.0 10.4 11.3 69 3.1 S 37 43 20 23 1022.4 1022.4 0.0
25/07:30pm 17.2 10.9 11.0 67 3.3 SSE 35 41 19 22 1022.2 1022.2 0.0
25/07:00pm 17.6 11.6 10.7 64 3.7 S 33 39 18 21 1022.3 1022.3 0.0
25/06:30pm 18.2 12.0 11.5 65 3.6 SSE 35 41 19 22 1022.3 1022.3 0.0
25/06:00pm 18.6 12.4 11.4 63 3.9 S 35 43 19 23 1022.4 1022.4 0.0
25/05:30pm 18.8 12.4 10.6 59 4.4 S 35 43 19 23 1022.5 1022.5 0.0
25/05:00pm 19.4 13.4 12.2 63 4.0 S 35 41 19 22 1022.9 1022.9 0.0
25/04:30pm 19.6 13.8 11.4 59 4.5 S 33 41 18 22 1023.1 1023.1 0.0
25/04:00pm 19.4 13.4 10.9 58 4.6 S 33 41 18 22 1023.3 1023.3 0.0
25/03:30pm 19.5 13.2 9.7 53 5.2 S 33 39 18 21 1023.6 1023.6 0.0
25/03:00pm 19.7 13.4 9.6 52 5.3 S 33 39 18 21 1024.0 1024.0 0.0
25/02:30pm 19.6 14.0 10.3 55 5.0 SSE 30 35 16 19 1024.4 1024.4 0.0
25/02:00pm 19.4 15.1 10.7 57 4.7 SSE 24 32 13 17 1024.8 1024.8 0.0

Other Formats:

Comma delimited format used in spreadsheet applications
http://www.bom.gov.au/fwo/IDS60801/IDS60801.94677.axf

JavaScript Object Notation format (JSON) in row-major order
http://www.bom.gov.au/fwo/IDS60801/IDS60801.94677.json